createdAt,value
2023-04-16T00:01:58.527Z,100066.06
2023-04-16T00:04:44.523Z,100054.72
2023-04-16T00:07:30.630Z,100068.63
2023-04-16T00:10:16.421Z,100064.56
2023-04-16T00:13:02.502Z,100067.91
2023-04-16T00:15:48.358Z,100042.59
2023-04-16T00:18:34.367Z,100071.47
2023-04-16T00:21:20.037Z,100070.94
2023-04-16T00:24:05.877Z,100073.88
2023-04-16T00:26:51.337Z,100064.56
2023-04-16T00:29:37.282Z,100021.84
2023-04-16T00:32:23.368Z,100069.84
2023-04-16T00:35:09.716Z,100079.56
2023-04-16T00:37:55.099Z,100080.59
2023-04-16T00:40:40.901Z,100076.94
2023-04-16T00:43:26.859Z,100054.84
2023-04-16T00:46:13.107Z,100085.72
2023-04-16T00:49:00.385Z,100067.41
2023-04-16T00:51:46.624Z,100086.22
2023-04-16T00:54:32.532Z,100082.91
2023-04-16T00:57:21.091Z,100084.72
2023-04-16T01:00:07.451Z,100063.75
2023-04-16T01:02:53.972Z,100085.31
2023-04-16T01:05:39.751Z,100085.94
2023-04-16T01:08:26.159Z,100047.34
2023-04-16T01:11:12.197Z,100083.28
2023-04-16T01:13:57.912Z,100091.59
2023-04-16T01:16:43.948Z,100082.19
2023-04-16T01:19:36.248Z,100039.28
2023-04-16T01:22:22.292Z,100074.13
2023-04-16T01:25:29.239Z,100049.38
2023-04-16T01:28:23.572Z,100008.91
2023-04-16T01:31:12.016Z,100055.72
2023-04-16T01:34:10.187Z,100091.31
2023-04-16T01:36:55.921Z,100088.16
2023-04-16T01:39:41.532Z,100082.44
2023-04-16T01:42:28.198Z,100074.28
2023-04-16T01:45:13.906Z,100092.16
2023-04-16T01:48:00.808Z,100073.97
2023-04-16T01:50:46.436Z,100094.38
2023-04-16T01:53:32.344Z,100086.00
2023-04-16T01:56:17.769Z,100091.25
2023-04-16T01:59:03.811Z,100098.03
2023-04-16T02:01:55.831Z,100081.72
2023-04-16T02:04:45.074Z,100085.16
2023-04-16T02:07:31.837Z,100092.53
2023-04-16T02:10:17.525Z,100065.22
2023-04-16T02:13:03.863Z,100097.19
2023-04-16T02:15:50.986Z,100100.94
2023-04-16T02:18:43.673Z,100081.06
2023-04-16T02:21:31.869Z,100098.63
2023-04-16T02:24:17.863Z,100068.91
2023-04-16T02:27:04.050Z,100098.00
2023-04-16T02:29:49.398Z,100100.94
2023-04-16T02:32:37.010Z,100096.88
2023-04-16T02:35:22.866Z,100105.22
2023-04-16T02:38:09.193Z,100071.38
2023-04-16T02:40:55.289Z,100100.66
2023-04-16T02:43:40.935Z,100106.72
2023-04-16T02:46:27.528Z,100067.84
2023-04-16T02:49:13.833Z,100108.22
2023-04-16T02:51:59.104Z,100108.72
2023-04-16T02:54:45.076Z,100113.28
2023-04-16T02:57:30.756Z,100107.91
2023-04-16T03:00:16.493Z,100120.94
2023-04-16T03:03:02.629Z,100114.38
2023-04-16T03:05:48.716Z,100117.84
2023-04-16T03:08:35.260Z,100115.13
2023-04-16T03:11:21.758Z,100065.66
2023-04-16T03:14:07.387Z,100090.56
2023-04-16T03:16:53.117Z,100122.00
2023-04-16T03:19:38.566Z,100097.44
2023-04-16T03:22:24.471Z,100136.47
2023-04-16T03:25:10.146Z,100136.47
2023-04-16T03:27:55.823Z,100111.09
2023-04-16T03:30:42.104Z,100142.28
2023-04-16T03:33:28.170Z,100135.00
2023-04-16T03:36:14.085Z,100138.31
2023-04-16T03:39:00.244Z,100133.75
2023-04-16T03:41:47.142Z,100140.31
2023-04-16T03:44:33.849Z,100140.81
2023-04-16T03:47:20.710Z,100125.63
2023-04-16T03:50:08.547Z,100147.31
2023-04-16T03:52:55.452Z,100145.94
2023-04-16T03:55:42.000Z,100118.34
2023-04-16T03:58:28.305Z,100153.28
2023-04-16T04:01:15.817Z,100156.63
2023-04-16T04:04:01.922Z,100167.19
2023-04-16T04:06:47.978Z,100147.72
2023-04-16T04:09:34.104Z,100167.25
2023-04-16T04:12:21.998Z,100161.94
2023-04-16T04:15:08.265Z,100175.50
2023-04-16T04:17:54.004Z,100171.91
2023-04-16T04:20:41.328Z,100183.44
2023-04-16T04:23:27.637Z,100189.78
2023-04-16T04:26:13.187Z,100158.16
2023-04-16T04:28:59.791Z,100153.44
2023-04-16T04:31:45.766Z,100184.59
2023-04-16T04:34:36.606Z,100187.41
2023-04-16T04:37:22.843Z,100178.69
2023-04-16T04:40:17.796Z,100191.75
2023-04-16T04:42:56.182Z,100140.84
2023-04-16T04:45:43.236Z,100192.03
2023-04-16T04:48:29.188Z,100200.47
2023-04-16T04:51:15.478Z,100207.84
2023-04-16T04:54:02.622Z,100177.00
2023-04-16T04:56:48.283Z,100194.03
2023-04-16T04:59:33.779Z,100207.59
2023-04-16T05:02:19.550Z,100171.50
2023-04-16T05:05:05.860Z,100212.81
2023-04-16T05:07:51.496Z,100220.22
2023-04-16T05:10:36.926Z,100214.69
2023-04-16T05:13:22.777Z,100185.56
2023-04-16T05:16:08.490Z,100188.00
2023-04-16T05:18:56.061Z,100226.66
2023-04-16T05:21:41.684Z,100230.72
2023-04-16T05:24:27.475Z,100235.09
2023-04-16T05:27:13.352Z,100237.06
2023-04-16T05:29:59.042Z,100222.56
2023-04-16T05:32:44.501Z,100243.97
2023-04-16T05:35:30.642Z,100231.56
2023-04-16T05:38:16.581Z,100237.69
2023-04-16T05:41:02.485Z,100249.25
2023-04-16T05:43:48.539Z,100256.13
2023-04-16T05:46:34.772Z,100251.66
2023-04-16T05:49:21.480Z,100253.56
2023-04-16T05:52:07.555Z,100260.19
2023-04-16T05:54:53.202Z,100252.88
2023-04-16T05:57:38.947Z,100250.03
2023-04-16T06:00:24.478Z,100265.00
2023-04-16T06:03:10.504Z,100265.53
2023-04-16T06:05:56.573Z,100230.25
2023-04-16T06:08:42.606Z,100266.38
2023-04-16T06:11:32.417Z,100268.28
2023-04-16T06:14:19.008Z,100278.63
2023-04-16T06:17:04.653Z,100263.09
2023-04-16T06:19:50.513Z,100261.94
2023-04-16T06:22:36.076Z,100283.72
2023-04-16T06:25:21.651Z,100281.41
2023-04-16T06:28:07.671Z,100286.28
2023-04-16T06:30:53.390Z,100281.31
2023-04-16T06:33:38.860Z,100292.91
2023-04-16T06:36:25.130Z,100280.13
2023-04-16T06:39:10.862Z,100287.56
2023-04-16T06:41:57.298Z,100290.84
2023-04-16T06:44:42.735Z,100294.66
2023-04-16T06:47:28.475Z,100270.22
2023-04-16T06:50:13.775Z,100302.41
2023-04-16T06:52:59.512Z,100261.94
2023-04-16T06:55:45.358Z,100304.03
2023-04-16T06:58:31.372Z,100268.41
2023-04-16T07:01:17.595Z,100297.13
2023-04-16T07:04:04.454Z,100309.09
2023-04-16T07:06:50.218Z,100312.13
2023-04-16T07:09:35.921Z,100314.34
2023-04-16T07:12:22.826Z,100283.78
2023-04-16T07:15:10.034Z,100316.69
2023-04-16T07:17:55.916Z,100328.06
2023-04-16T07:20:42.192Z,100331.13
2023-04-16T07:23:28.083Z,100325.22
2023-04-16T07:26:14.024Z,100327.47
2023-04-16T07:28:59.707Z,100299.00
2023-04-16T07:31:45.905Z,100322.69
2023-04-16T07:34:34.829Z,100327.56
2023-04-16T07:37:20.987Z,100326.84
2023-04-16T07:40:07.582Z,100336.44
2023-04-16T07:42:53.280Z,100302.00
2023-04-16T07:45:39.637Z,100338.38
2023-04-16T07:48:26.798Z,100335.47
2023-04-16T07:51:12.354Z,100331.53
2023-04-16T07:53:58.324Z,100348.72
2023-04-16T07:56:43.826Z,100344.25
2023-04-16T07:59:29.860Z,100360.19
2023-04-16T08:02:16.763Z,100346.59
2023-04-16T08:05:03.549Z,100349.41
2023-04-16T08:07:49.228Z,100357.16
2023-04-16T08:10:35.030Z,100358.09
2023-04-16T08:13:20.374Z,100327.94
2023-04-16T08:16:06.529Z,100338.00
2023-04-16T08:18:52.222Z,100359.13
2023-04-16T08:21:37.856Z,100365.44
2023-04-16T08:24:23.539Z,100338.25
2023-04-16T08:27:18.338Z,100365.44
2023-04-16T08:30:06.095Z,100348.28
2023-04-16T08:32:52.053Z,100368.91
2023-04-16T08:35:37.852Z,100374.69
2023-04-16T08:38:24.017Z,100377.47
2023-04-16T08:41:12.449Z,100385.44
2023-04-16T08:44:01.040Z,100390.84
2023-04-16T08:46:47.215Z,100374.25
2023-04-16T08:49:36.185Z,100396.41
2023-04-16T08:52:24.265Z,100391.50
2023-04-16T08:55:14.069Z,100385.44
2023-04-16T08:58:00.868Z,100375.91
2023-04-16T09:00:47.902Z,100401.66
2023-04-16T09:03:36.478Z,100368.38
2023-04-16T09:06:23.028Z,100402.47
2023-04-16T09:09:09.081Z,100406.25
2023-04-16T09:11:56.263Z,100400.53
2023-04-16T09:14:43.131Z,100394.56
2023-04-16T09:17:29.452Z,100414.56
2023-04-16T09:20:15.578Z,100413.16
2023-04-16T09:23:01.709Z,100414.38
2023-04-16T09:25:47.110Z,100420.06
2023-04-16T09:28:43.513Z,100376.63
2023-04-16T09:31:28.909Z,100424.06
2023-04-16T09:34:15.164Z,100427.50
2023-04-16T09:37:17.118Z,100430.22
2023-04-16T09:40:04.792Z,100427.31
2023-04-16T09:42:52.346Z,100430.03
2023-04-16T09:45:54.647Z,100427.19
2023-04-16T09:48:40.441Z,100403.75
2023-04-16T09:51:26.912Z,100432.38
2023-04-16T09:54:12.814Z,100435.09
2023-04-16T09:57:01.011Z,100442.31
2023-04-16T09:59:47.218Z,100437.03
2023-04-16T10:02:34.693Z,100442.59
2023-04-16T10:05:20.940Z,100448.59
2023-04-16T10:08:14.165Z,100436.41
2023-04-16T10:10:59.774Z,100439.88
2023-04-16T10:13:46.535Z,100423.63
2023-04-16T10:16:33.106Z,100423.13
2023-04-16T10:19:19.221Z,100440.97
2023-04-16T10:22:05.531Z,100451.34
2023-04-16T10:24:52.505Z,100455.50
2023-04-16T10:27:38.764Z,100455.00
2023-04-16T10:30:25.981Z,100449.31
2023-04-16T10:33:12.188Z,100453.97
2023-04-16T10:36:09.912Z,100457.53
2023-04-16T10:38:59.997Z,100463.13
2023-04-16T10:41:46.962Z,100457.25
2023-04-16T10:44:33.589Z,100467.09
2023-04-16T10:47:19.331Z,100428.16
2023-04-16T10:50:16.273Z,100444.25
2023-04-16T10:53:22.251Z,100445.72
2023-04-16T10:56:07.766Z,100471.47
2023-04-16T10:58:55.731Z,100462.59
2023-04-16T11:01:43.123Z,100455.66
2023-04-16T11:04:33.704Z,100474.75
2023-04-16T11:07:32.857Z,100475.88
2023-04-16T11:10:20.128Z,100475.59
2023-04-16T11:13:06.601Z,100484.09
2023-04-16T11:15:57.915Z,100486.03
2023-04-16T11:18:50.973Z,100486.78
2023-04-16T11:21:37.821Z,100486.16
2023-04-16T11:24:25.149Z,100452.75
2023-04-16T11:27:16.200Z,100492.56
2023-04-16T11:30:07.491Z,100496.31
2023-04-16T11:32:53.632Z,100480.06
2023-04-16T11:35:39.749Z,100496.84
2023-04-16T11:38:40.998Z,100471.06
2023-04-16T11:41:26.484Z,100497.03
2023-04-16T11:44:24.191Z,100458.66
2023-04-16T11:47:09.818Z,100497.84
2023-04-16T11:49:56.125Z,100498.47
2023-04-16T11:52:41.915Z,100502.94
2023-04-16T11:55:28.201Z,100487.81
2023-04-16T11:58:17.383Z,100481.31
2023-04-16T12:01:04.390Z,100498.75
2023-04-16T12:03:50.015Z,100502.34
2023-04-16T12:06:36.785Z,100497.97
2023-04-16T12:09:27.176Z,100500.50
2023-04-16T12:12:27.576Z,100482.00
2023-04-16T12:15:13.867Z,100501.94
2023-04-16T12:18:08.096Z,100487.59
2023-04-16T12:20:54.389Z,100487.59
2023-04-16T12:23:40.667Z,100488.69
2023-04-16T12:26:26.676Z,100491.41
2023-04-16T12:29:20.249Z,100489.56
2023-04-16T12:32:22.022Z,100489.56
2023-04-16T12:35:09.284Z,100491.88
2023-04-16T12:37:55.195Z,100487.41
2023-04-16T12:40:41.837Z,100478.47
2023-04-16T12:43:28.544Z,100489.25
2023-04-16T12:46:14.802Z,100480.63
2023-04-16T12:49:00.977Z,100496.16
2023-04-16T12:51:46.910Z,100460.13
2023-04-16T12:54:32.718Z,100490.09
2023-04-16T12:57:19.417Z,100457.00
2023-04-16T13:00:08.742Z,100490.56
2023-04-16T13:02:54.678Z,100480.09
2023-04-16T13:05:41.009Z,100493.81
2023-04-16T13:08:27.241Z,100505.91
2023-04-16T13:11:13.231Z,100464.50
2023-04-16T13:13:59.467Z,100482.59
2023-04-16T13:16:45.562Z,100503.31
2023-04-16T13:19:31.621Z,100494.28
2023-04-16T13:22:17.648Z,100491.97
2023-04-16T13:25:04.056Z,100501.41
2023-04-16T13:27:49.813Z,100479.28
2023-04-16T13:30:35.649Z,100510.25
2023-04-16T13:33:21.775Z,100497.97
2023-04-16T13:36:07.820Z,100474.00
2023-04-16T13:38:53.844Z,100502.00
2023-04-16T13:41:39.909Z,100513.81
2023-04-16T13:44:25.841Z,100515.72
2023-04-16T13:47:12.081Z,100485.97
2023-04-16T13:49:58.189Z,100520.41
2023-04-16T13:52:43.972Z,100514.13
2023-04-16T13:55:31.758Z,100509.94
2023-04-16T13:58:17.684Z,100490.03
2023-04-16T14:01:03.964Z,100503.47
2023-04-16T14:03:50.189Z,100513.88
2023-04-16T14:06:36.400Z,100526.28
2023-04-16T14:09:22.807Z,100524.03
2023-04-16T14:12:08.503Z,100531.00
2023-04-16T14:14:54.527Z,100527.63
2023-04-16T14:17:41.106Z,100535.84
2023-04-16T14:20:26.966Z,100512.34
2023-04-16T14:23:12.557Z,100534.38
2023-04-16T14:25:58.439Z,100535.50
2023-04-16T14:28:44.495Z,100510.06
2023-04-16T14:31:30.779Z,100536.47
2023-04-16T14:34:16.915Z,100501.28
2023-04-16T14:37:02.764Z,100535.53
2023-04-16T14:39:48.380Z,100530.97
2023-04-16T14:42:36.619Z,100524.22
2023-04-16T14:45:22.915Z,100535.31
2023-04-16T14:48:09.070Z,100534.22
2023-04-16T14:50:55.060Z,100539.88
2023-04-16T14:53:41.012Z,100543.13
2023-04-16T14:56:26.863Z,100544.34
2023-04-16T14:59:13.050Z,100525.03
2023-04-16T15:01:58.828Z,100538.16
2023-04-16T15:04:45.367Z,100533.75
2023-04-16T15:07:31.695Z,100551.25
2023-04-16T15:10:17.553Z,100554.03
2023-04-16T15:13:03.079Z,100561.13
2023-04-16T15:15:49.273Z,100549.75
2023-04-16T15:18:34.974Z,100564.41
2023-04-16T15:21:20.963Z,100570.00
2023-04-16T15:24:06.812Z,100511.72
2023-04-16T15:26:52.683Z,100570.59
2023-04-16T15:29:38.258Z,100567.66
2023-04-16T15:32:24.198Z,100563.06
2023-04-16T15:35:11.304Z,100530.00
2023-04-16T15:37:57.921Z,100563.13
2023-04-16T15:40:43.253Z,100575.44
2023-04-16T15:43:29.882Z,100568.91
2023-04-16T15:46:15.660Z,100578.25
2023-04-16T15:49:02.262Z,100580.47
2023-04-16T15:51:48.151Z,100574.22
2023-04-16T15:54:34.280Z,100582.44
2023-04-16T15:57:19.759Z,100584.94
2023-04-16T16:00:13.952Z,100591.31
2023-04-16T16:02:59.790Z,100589.38
2023-04-16T16:05:48.993Z,100580.94
2023-04-16T16:08:36.079Z,100597.13
2023-04-16T16:11:21.994Z,100594.19
2023-04-16T16:14:07.361Z,100597.19
2023-04-16T16:16:53.443Z,100602.13
2023-04-16T16:19:39.475Z,100585.56
2023-04-16T16:22:25.710Z,100600.56
2023-04-16T16:25:11.508Z,100591.31
2023-04-16T16:27:58.825Z,100599.47
2023-04-16T16:30:45.010Z,100599.78
2023-04-16T16:33:31.105Z,100596.78
2023-04-16T16:36:17.538Z,100598.47
2023-04-16T16:39:04.733Z,100594.69
2023-04-16T16:41:52.374Z,100565.38
2023-04-16T16:44:38.418Z,100601.34
2023-04-16T16:47:27.004Z,100561.13
2023-04-16T16:50:12.947Z,100599.19
2023-04-16T16:52:59.615Z,100599.25
2023-04-16T16:55:45.253Z,100609.28
2023-04-16T16:58:30.714Z,100610.97
2023-04-16T17:01:17.963Z,100552.59
2023-04-16T17:04:03.449Z,100610.75
2023-04-16T17:06:49.549Z,100614.59
2023-04-16T17:09:35.525Z,100611.09
2023-04-16T17:12:23.290Z,100609.50
2023-04-16T17:15:09.518Z,100611.44
2023-04-16T17:17:55.856Z,100615.03
2023-04-16T17:20:42.107Z,100622.19
2023-04-16T17:23:27.907Z,100633.63
2023-04-16T17:26:13.394Z,100610.25
2023-04-16T17:28:59.360Z,100628.78
2023-04-16T17:31:44.985Z,100641.34
2023-04-16T17:34:30.752Z,100646.00
2023-04-16T17:37:16.654Z,100646.81
2023-04-16T17:40:07.325Z,100653.34
2023-04-16T17:42:53.038Z,100652.81
2023-04-16T17:45:38.727Z,100661.00
2023-04-16T17:48:24.540Z,100647.66
2023-04-16T17:51:16.307Z,100663.75
2023-04-16T17:54:03.290Z,100662.13
2023-04-16T17:56:49.142Z,100636.63
2023-04-16T17:59:34.777Z,100671.16
2023-04-16T18:02:20.916Z,100611.06
2023-04-16T18:05:07.662Z,100644.84
2023-04-16T18:07:55.403Z,100677.78
2023-04-16T18:10:41.246Z,100673.16
2023-04-16T18:13:27.343Z,100673.47
2023-04-16T18:16:19.371Z,100643.25
2023-04-16T18:19:05.564Z,100685.22
2023-04-16T18:21:52.010Z,100684.69
2023-04-16T18:24:37.668Z,100675.47
2023-04-16T18:27:23.322Z,100690.47
2023-04-16T18:30:18.981Z,100696.44
2023-04-16T18:33:34.420Z,100696.44
2023-04-16T18:36:14.820Z,100706.53
2023-04-16T18:39:02.506Z,100710.59
2023-04-16T18:41:48.836Z,100685.06
2023-04-16T18:44:34.757Z,100715.00
2023-04-16T18:47:21.210Z,100709.53
2023-04-16T18:50:08.176Z,100709.53
2023-04-16T18:52:54.212Z,100726.72
2023-04-16T18:55:39.929Z,100714.75
2023-04-16T18:58:26.112Z,100708.44
2023-04-16T19:01:13.654Z,100717.44
2023-04-16T19:04:01.589Z,100711.72
2023-04-16T19:06:48.514Z,100677.16
2023-04-16T19:09:34.305Z,100714.22
2023-04-16T19:12:19.917Z,100722.94
2023-04-16T19:15:06.597Z,100726.78
2023-04-16T19:17:52.273Z,100707.69
2023-04-16T19:20:38.397Z,100722.97
2023-04-16T19:23:24.800Z,100724.59
2023-04-16T19:26:10.584Z,100721.88
2023-04-16T19:28:56.233Z,100716.13
2023-04-16T19:31:42.602Z,100734.97
2023-04-16T19:34:28.326Z,100732.78
2023-04-16T19:37:14.496Z,100730.06
2023-04-16T19:40:00.719Z,100730.34
2023-04-16T19:42:46.624Z,100736.63
2023-04-16T19:45:32.101Z,100734.44
2023-04-16T19:48:18.337Z,100726.03
2023-04-16T19:51:05.534Z,100737.72
2023-04-16T19:53:53.272Z,100738.56
2023-04-16T19:56:38.926Z,100733.91
2023-04-16T19:59:28.076Z,100741.84
2023-04-16T20:02:13.777Z,100741.06
2023-04-16T20:05:01.135Z,100746.53
2023-04-16T20:07:46.750Z,100741.91
2023-04-16T20:10:32.372Z,100749.56
2023-04-16T20:13:18.870Z,100755.31
2023-04-16T20:16:05.756Z,100737.88
2023-04-16T20:18:54.404Z,100741.44
2023-04-16T20:21:40.601Z,100759.97
2023-04-16T20:24:27.205Z,100746.34
2023-04-16T20:27:14.660Z,100743.88
2023-04-16T20:30:00.457Z,100749.88
2023-04-16T20:32:46.475Z,100747.97
2023-04-16T20:35:31.842Z,100753.16
2023-04-16T20:38:23.610Z,100750.44
2023-04-16T20:41:14.591Z,100756.22
2023-04-16T20:44:05.325Z,100758.66
2023-04-16T20:46:51.010Z,100734.75
2023-04-16T20:49:46.858Z,100762.22
2023-04-16T20:52:32.693Z,100720.81
2023-04-16T20:55:19.027Z,100762.75
2023-04-16T20:58:04.782Z,100766.88
2023-04-16T21:00:51.738Z,100768.53
2023-04-16T21:03:37.482Z,100768.53
2023-04-16T21:06:23.513Z,100759.28
2023-04-16T21:09:12.867Z,100763.06
2023-04-16T21:11:58.965Z,100769.06
2023-04-16T21:14:44.538Z,100751.34
2023-04-16T21:17:30.594Z,100745.66
2023-04-16T21:20:16.088Z,100768.53
2023-04-16T21:23:03.910Z,100770.97
2023-04-16T21:25:49.269Z,100745.38
2023-04-16T21:28:35.209Z,100767.72
2023-04-16T21:31:20.678Z,100771.53
2023-04-16T21:34:06.820Z,100777.81
2023-04-16T21:36:52.275Z,100783.81
2023-04-16T21:39:38.134Z,100763.66
2023-04-16T21:42:23.513Z,100777.28
2023-04-16T21:45:10.463Z,100778.94
2023-04-16T21:47:56.333Z,100766.09
2023-04-16T21:50:42.407Z,100774.56
2023-04-16T21:53:32.078Z,100740.22
2023-04-16T21:56:18.283Z,100778.41
2023-04-16T21:59:04.023Z,100729.88
2023-04-16T22:01:49.860Z,100775.94
2023-04-16T22:04:39.154Z,100781.38
2023-04-16T22:07:27.115Z,100745.97
2023-04-16T22:10:14.866Z,100741.06
2023-04-16T22:13:01.718Z,100774.59
2023-04-16T22:15:47.184Z,100747.34
2023-04-16T22:18:33.595Z,100781.69
2023-04-16T22:21:19.056Z,100777.56
2023-04-16T22:24:05.429Z,100778.97
2023-04-16T22:26:51.570Z,100772.16
2023-04-16T22:29:37.444Z,100780.63
2023-04-16T22:32:23.036Z,100783.06
2023-04-16T22:35:10.452Z,100778.44
2023-04-16T22:37:55.975Z,100790.97
2023-04-16T22:40:42.104Z,100776.53
2023-04-16T22:43:27.578Z,100781.44
2023-04-16T22:46:13.492Z,100780.59
2023-04-16T22:48:59.205Z,100765.63
2023-04-16T22:51:46.215Z,100765.34
2023-04-16T22:54:32.740Z,100764.53
2023-04-16T22:57:21.220Z,100747.91
2023-04-16T23:00:09.965Z,100779.81
2023-04-16T23:02:56.194Z,100742.75
2023-04-16T23:05:42.234Z,100777.34
2023-04-16T23:08:27.992Z,100785.25
2023-04-16T23:11:13.510Z,100785.53
2023-04-16T23:13:59.266Z,100775.72
2023-04-16T23:16:44.788Z,100768.06
2023-04-16T23:19:31.717Z,100779.53
2023-04-16T23:22:17.944Z,100745.16
2023-04-16T23:25:03.692Z,100769.16
2023-04-16T23:27:49.285Z,100769.97
2023-04-16T23:30:35.372Z,100732.09
2023-04-16T23:33:20.859Z,100769.16
2023-04-16T23:36:07.066Z,100763.69
2023-04-16T23:38:52.802Z,100733.50
2023-04-16T23:41:38.563Z,100741.13
2023-04-16T23:44:24.553Z,100765.63
2023-04-16T23:47:10.779Z,100763.72
2023-04-16T23:49:56.339Z,100755.56
2023-04-16T23:52:42.071Z,100764.00
2023-04-16T23:55:27.522Z,100734.56
2023-04-16T23:58:13.693Z,100758.31
